createdAt,value
2022-11-05T00:00:17.877Z,98045.03
2022-11-05T00:03:02.656Z,98060.75
2022-11-05T00:05:47.491Z,98059.09
2022-11-05T00:08:32.313Z,98055.09
2022-11-05T00:10:58.895Z,98065.69
2022-11-05T00:13:44.058Z,98065.16
2022-11-05T00:16:28.916Z,98051.13
2022-11-05T00:19:07.056Z,98055.06
2022-11-05T00:21:53.695Z,98054.66
2022-11-05T00:24:39.337Z,98056.88
2022-11-05T00:27:06.268Z,98053.38
2022-11-05T00:29:32.816Z,98046.81
2022-11-05T00:31:59.387Z,98060.28
2022-11-05T00:34:25.993Z,98057.75
2022-11-05T00:36:52.617Z,98057.34
2022-11-05T00:39:19.150Z,98053.81
2022-11-05T00:42:05.627Z,98053.69
2022-11-05T00:44:51.077Z,98062.75
2022-11-05T00:47:36.257Z,98067.09
2022-11-05T00:50:03.086Z,98065.50
2022-11-05T00:52:48.081Z,98075.63
2022-11-05T00:55:14.686Z,98071.72
2022-11-05T00:57:41.166Z,98075.63
2022-11-05T01:00:08.352Z,98085.63
2022-11-05T01:02:35.008Z,98075.06
2022-11-05T01:05:01.556Z,98085.84
2022-11-05T01:07:28.069Z,98094.97
2022-11-05T01:09:54.639Z,98086.50
2022-11-05T01:12:21.222Z,98097.06
2022-11-05T01:14:47.745Z,98100.56
2022-11-05T01:17:14.272Z,98109.13
2022-11-05T01:19:40.887Z,98106.06
2022-11-05T01:22:07.401Z,98114.53
2022-11-05T01:24:33.902Z,98109.56
2022-11-05T01:27:00.442Z,98092.25
2022-11-05T01:29:26.963Z,98100.31
2022-11-05T01:31:53.496Z,98105.69
2022-11-05T01:34:20.022Z,98105.06
2022-11-05T01:36:46.533Z,98103.88
2022-11-05T01:39:13.320Z,98097.84
2022-11-05T01:41:39.800Z,98093.06
2022-11-05T01:44:06.322Z,98089.16
2022-11-05T01:46:42.039Z,98087.31
2022-11-05T01:49:14.546Z,98092.06
2022-11-05T01:51:42.020Z,98088.50
2022-11-05T01:54:10.599Z,98084.41
2022-11-05T01:56:47.491Z,98067.03
2022-11-05T01:59:23.453Z,98075.69
2022-11-05T02:01:50.591Z,98066.00
2022-11-05T02:04:26.945Z,98061.66
2022-11-05T02:06:53.502Z,98058.13
2022-11-05T02:09:30.230Z,98051.91
2022-11-05T02:11:57.287Z,98055.44
2022-11-05T02:14:23.808Z,98058.31
2022-11-05T02:16:53.321Z,98051.47
2022-11-05T02:19:25.772Z,98045.47
2022-11-05T02:22:29.345Z,98046.88
2022-11-05T02:25:14.627Z,98051.50
2022-11-05T02:27:44.069Z,98056.25
2022-11-05T02:30:25.725Z,98048.56
2022-11-05T02:33:33.762Z,98060.38
2022-11-05T02:36:17.784Z,98056.06
2022-11-05T02:39:02.207Z,98060.38
2022-11-05T02:41:53.667Z,98057.28
2022-11-05T02:44:41.713Z,98061.06
2022-11-05T02:47:16.987Z,98064.78
2022-11-05T02:50:00.305Z,98063.75
2022-11-05T02:52:50.064Z,98064.16
2022-11-05T02:55:23.917Z,98072.03
2022-11-05T02:57:50.497Z,98074.94
2022-11-05T03:00:45.239Z,98079.47
2022-11-05T03:03:16.723Z,98073.94
2022-11-05T03:06:20.316Z,98077.84
2022-11-05T03:09:20.402Z,98086.56
2022-11-05T03:12:06.032Z,98088.22
2022-11-05T03:14:39.568Z,98085.31
2022-11-05T03:17:14.553Z,98085.53
2022-11-05T03:19:54.288Z,98089.47
2022-11-05T03:22:35.484Z,98088.25
2022-11-05T03:25:05.700Z,98090.34
2022-11-05T03:27:35.228Z,98097.53
2022-11-05T03:30:09.574Z,98099.44
2022-11-05T03:32:39.236Z,98101.91
2022-11-05T03:35:13.233Z,98107.31
2022-11-05T03:37:41.644Z,98113.50
2022-11-05T03:40:09.703Z,98113.28
2022-11-05T03:42:39.014Z,98114.94
2022-11-05T03:45:10.022Z,98123.66
2022-11-05T03:47:39.701Z,98118.66
2022-11-05T03:50:23.123Z,98125.09
2022-11-05T03:52:54.477Z,98129.03
2022-11-05T03:55:25.096Z,98136.47
2022-11-05T03:57:54.084Z,98139.19
2022-11-05T04:00:21.749Z,98147.25
2022-11-05T04:02:48.350Z,98154.06
2022-11-05T04:05:15.015Z,98157.81
2022-11-05T04:08:01.024Z,98149.50
2022-11-05T04:10:45.864Z,98162.97
2022-11-05T04:13:24.161Z,98166.66
2022-11-05T04:16:13.007Z,98165.88
2022-11-05T04:18:39.948Z,98169.78
2022-11-05T04:21:25.714Z,98167.50
2022-11-05T04:24:10.126Z,98168.34
2022-11-05T04:26:42.018Z,98183.00
2022-11-05T04:29:28.799Z,98171.00
2022-11-05T04:31:55.323Z,98168.94
2022-11-05T04:34:24.766Z,98184.84
2022-11-05T04:36:52.382Z,98175.13
2022-11-05T04:39:19.974Z,98176.78
2022-11-05T04:41:49.860Z,98179.28
2022-11-05T04:44:16.819Z,98188.97
2022-11-05T04:46:43.496Z,98192.72
2022-11-05T04:49:09.984Z,98190.41
2022-11-05T04:51:36.462Z,98201.56
2022-11-05T04:54:03.454Z,98216.03
2022-11-05T04:56:29.968Z,98227.38
2022-11-05T04:58:56.465Z,98222.66
2022-11-05T05:01:23.670Z,98225.53
2022-11-05T05:03:51.288Z,98228.69
2022-11-05T05:06:18.564Z,98235.88
2022-11-05T05:08:46.817Z,98225.34
2022-11-05T05:11:14.407Z,98241.47
2022-11-05T05:13:40.915Z,98228.44
2022-11-05T05:16:09.363Z,98230.50
2022-11-05T05:18:35.975Z,98235.06
2022-11-05T05:21:21.255Z,98238.53
2022-11-05T05:23:48.353Z,98245.16
2022-11-05T05:26:16.051Z,98244.72
2022-11-05T05:28:42.588Z,98249.44
2022-11-05T05:31:09.219Z,98253.81
2022-11-05T05:33:35.973Z,98249.91
2022-11-05T05:36:07.031Z,98255.28
2022-11-05T05:38:36.569Z,98255.91
2022-11-05T05:41:03.155Z,98244.44
2022-11-05T05:43:33.646Z,98251.44
2022-11-05T05:46:08.067Z,98270.88
2022-11-05T05:48:34.885Z,98265.28
2022-11-05T05:51:02.764Z,98272.66
2022-11-05T05:53:29.616Z,98267.28
2022-11-05T05:55:56.898Z,98275.75
2022-11-05T05:58:24.188Z,98277.78
2022-11-05T06:00:50.647Z,98280.31
2022-11-05T06:03:17.229Z,98282.38
2022-11-05T06:05:43.723Z,98290.03
2022-11-05T06:08:10.229Z,98297.84
2022-11-05T06:10:36.818Z,98292.84
2022-11-05T06:13:03.356Z,98286.88
2022-11-05T06:15:35.521Z,98302.41
2022-11-05T06:18:02.433Z,98310.88
2022-11-05T06:20:28.910Z,98317.84
2022-11-05T06:22:56.508Z,98316.00
2022-11-05T06:25:23.787Z,98322.16
2022-11-05T06:27:50.339Z,98330.66
2022-11-05T06:30:17.696Z,98334.63
2022-11-05T06:32:44.691Z,98343.78
2022-11-05T06:35:11.236Z,98350.75
2022-11-05T06:37:37.716Z,98347.50
2022-11-05T06:40:04.593Z,98349.22
2022-11-05T06:42:31.084Z,98352.22
2022-11-05T06:44:57.707Z,98354.63
2022-11-05T06:47:24.238Z,98362.13
2022-11-05T06:49:50.715Z,98362.13
2022-11-05T06:52:17.230Z,98366.81
2022-11-05T06:54:44.032Z,98371.06
2022-11-05T06:57:11.872Z,98370.03
2022-11-05T06:59:39.296Z,98379.78
2022-11-05T07:02:06.643Z,98378.25
2022-11-05T07:04:33.285Z,98379.47
2022-11-05T07:07:00.880Z,98384.53
2022-11-05T07:09:28.791Z,98390.34
2022-11-05T07:11:55.709Z,98394.38
2022-11-05T07:14:22.243Z,98406.16
2022-11-05T07:16:48.784Z,98415.50
2022-11-05T07:19:15.315Z,98410.50
2022-11-05T07:21:41.808Z,98417.53
2022-11-05T07:24:08.485Z,98426.84
2022-11-05T07:26:34.991Z,98432.88
2022-11-05T07:29:01.553Z,98432.88
2022-11-05T07:31:28.144Z,98425.44
2022-11-05T07:33:54.712Z,98430.81
2022-11-05T07:36:21.175Z,98429.81
2022-11-05T07:38:47.660Z,98440.78
2022-11-05T07:41:14.152Z,98444.06
2022-11-05T07:43:40.628Z,98449.91
2022-11-05T07:46:12.660Z,98446.00
2022-11-05T07:48:40.322Z,98452.88
2022-11-05T07:51:06.841Z,98452.84
2022-11-05T07:53:33.383Z,98454.31
2022-11-05T07:55:59.999Z,98459.13
2022-11-05T07:58:26.643Z,98460.16
2022-11-05T08:00:53.291Z,98462.41
2022-11-05T08:03:20.551Z,98449.16
2022-11-05T08:05:47.914Z,98447.94
2022-11-05T08:08:16.587Z,98450.88
2022-11-05T08:10:43.264Z,98446.53
2022-11-05T08:13:10.755Z,98448.19
2022-11-05T08:15:37.743Z,98448.22
2022-11-05T08:18:12.654Z,98458.97
2022-11-05T08:20:40.571Z,98463.78
2022-11-05T08:23:07.652Z,98478.09
2022-11-05T08:25:34.603Z,98474.59
2022-11-05T08:28:06.688Z,98474.38
2022-11-05T08:30:34.073Z,98472.31
2022-11-05T08:33:03.896Z,98474.59
2022-11-05T08:35:30.811Z,98473.56
2022-11-05T08:37:59.067Z,98477.72
2022-11-05T08:40:26.429Z,98474.00
2022-11-05T08:42:53.417Z,98462.81
2022-11-05T08:45:19.993Z,98468.38
2022-11-05T08:47:46.628Z,98473.56
2022-11-05T08:50:13.263Z,98474.63
2022-11-05T08:52:40.697Z,98473.78
2022-11-05T08:55:07.851Z,98473.59
2022-11-05T08:57:34.391Z,98472.97
2022-11-05T09:00:01.056Z,98473.78
2022-11-05T09:02:27.843Z,98474.63
2022-11-05T09:04:54.434Z,98471.53
2022-11-05T09:07:22.852Z,98472.75
2022-11-05T09:09:49.460Z,98473.81
2022-11-05T09:12:16.078Z,98478.38
2022-11-05T09:14:42.669Z,98481.06
2022-11-05T09:17:15.965Z,98482.53
2022-11-05T09:19:42.598Z,98475.28
2022-11-05T09:22:12.567Z,98483.53
2022-11-05T09:24:39.974Z,98487.50
2022-11-05T09:27:10.195Z,98478.56
2022-11-05T09:29:36.915Z,98477.13
2022-11-05T09:32:03.633Z,98479.38
2022-11-05T09:34:30.188Z,98484.16
2022-11-05T09:36:57.229Z,98481.41
2022-11-05T09:39:24.429Z,98481.84
2022-11-05T09:41:53.198Z,98481.00
2022-11-05T09:44:28.245Z,98485.53
2022-11-05T09:47:02.118Z,98489.50
2022-11-05T09:49:39.743Z,98490.53
2022-11-05T09:52:12.498Z,98492.81
2022-11-05T09:54:40.093Z,98495.28
2022-11-05T09:57:08.525Z,98496.72
2022-11-05T09:59:42.003Z,98497.97
2022-11-05T10:02:16.298Z,98498.19
2022-11-05T10:04:43.768Z,98503.16
2022-11-05T10:07:15.901Z,98502.94
2022-11-05T10:09:47.648Z,98499.19
2022-11-05T10:12:24.491Z,98503.91
2022-11-05T10:15:03.583Z,98500.41
2022-11-05T10:17:33.739Z,98495.22
2022-11-05T10:20:10.633Z,98515.53
2022-11-05T10:22:37.249Z,98509.09
2022-11-05T10:25:16.563Z,98503.28
2022-11-05T10:27:48.080Z,98503.91
2022-11-05T10:30:15.116Z,98514.06
2022-11-05T10:32:42.888Z,98511.56
2022-11-05T10:35:16.640Z,98510.28
2022-11-05T10:37:43.129Z,98512.13
2022-11-05T10:40:33.619Z,98510.50
2022-11-05T10:43:08.126Z,98512.75
2022-11-05T10:45:47.170Z,98509.22
2022-11-05T10:48:43.464Z,98516.50
2022-11-05T10:51:10.577Z,98508.78
2022-11-05T10:53:39.075Z,98517.72
2022-11-05T10:56:43.204Z,98516.41
2022-11-05T10:59:25.045Z,98517.47
2022-11-05T11:02:08.552Z,98518.50
2022-11-05T11:04:38.062Z,98517.69
2022-11-05T11:07:06.304Z,98520.31
2022-11-05T11:09:35.988Z,98518.88
2022-11-05T11:12:06.332Z,98519.47
2022-11-05T11:14:34.980Z,98528.84
2022-11-05T11:17:15.800Z,98519.00
2022-11-05T11:19:42.183Z,98517.75
2022-11-05T11:22:15.675Z,98521.47
2022-11-05T11:24:48.314Z,98521.84
2022-11-05T11:27:17.857Z,98518.88
2022-11-05T11:29:49.802Z,98513.97
2022-11-05T11:32:19.489Z,98513.34
2022-11-05T11:34:50.228Z,98508.25
2022-11-05T11:37:23.605Z,98509.56
2022-11-05T11:40:05.995Z,98496.00
2022-11-05T11:42:37.696Z,98492.53
2022-11-05T11:45:07.748Z,98490.63
2022-11-05T11:47:34.426Z,98495.50
2022-11-05T11:50:02.180Z,98499.13
2022-11-05T11:52:30.711Z,98492.88
2022-11-05T11:55:09.320Z,98495.28
2022-11-05T11:57:43.881Z,98486.34
2022-11-05T12:00:10.962Z,98480.84
2022-11-05T12:03:18.291Z,98490.03
2022-11-05T12:05:48.236Z,98486.31
2022-11-05T12:08:44.355Z,98490.09
2022-11-05T12:11:21.476Z,98491.53
2022-11-05T12:13:55.837Z,98472.34
2022-11-05T12:16:25.953Z,98470.97
2022-11-05T12:19:00.375Z,98472.72
2022-11-05T12:21:52.506Z,98480.38
2022-11-05T12:24:36.018Z,98479.56
2022-11-05T12:27:33.820Z,98471.41
2022-11-05T12:30:20.517Z,98474.00
2022-11-05T12:33:05.320Z,98479.56
2022-11-05T12:35:56.496Z,98475.25
2022-11-05T12:38:54.428Z,98473.59
2022-11-05T12:41:41.209Z,98467.63
2022-11-05T12:44:13.476Z,98466.97
2022-11-05T12:46:58.463Z,98456.47
2022-11-05T12:49:43.704Z,98458.69
2022-11-05T12:52:47.992Z,98458.59
2022-11-05T12:55:18.632Z,98454.88
2022-11-05T12:57:48.284Z,98447.06
2022-11-05T13:00:23.442Z,98442.34
2022-11-05T13:03:08.163Z,98453.81
2022-11-05T13:05:37.807Z,98453.28
2022-11-05T13:08:14.614Z,98455.47
2022-11-05T13:10:44.836Z,98453.72
2022-11-05T13:13:29.232Z,98444.16
2022-11-05T13:16:11.798Z,98444.31
2022-11-05T13:18:48.755Z,98441.34
2022-11-05T13:21:16.169Z,98442.28
2022-11-05T13:23:49.064Z,98453.38
2022-11-05T13:26:24.849Z,98463.28
2022-11-05T13:28:57.466Z,98458.59
2022-11-05T13:31:31.031Z,98465.56
2022-11-05T13:33:57.654Z,98462.03
2022-11-05T13:36:46.965Z,98456.44
2022-11-05T13:39:28.300Z,98462.34
2022-11-05T13:42:06.592Z,98469.84
2022-11-05T13:44:46.579Z,98475.69
2022-11-05T13:47:20.428Z,98469.88
2022-11-05T13:50:01.331Z,98478.50
2022-11-05T13:52:51.345Z,98478.31
2022-11-05T13:55:36.533Z,98480.81
2022-11-05T13:58:15.347Z,98475.16
2022-11-05T14:00:57.095Z,98479.88
2022-11-05T14:03:23.778Z,98485.22
2022-11-05T14:06:04.803Z,98473.94
2022-11-05T14:08:32.072Z,98472.19
2022-11-05T14:11:02.192Z,98461.59
2022-11-05T14:13:38.005Z,98459.66
2022-11-05T14:16:06.861Z,98465.66
2022-11-05T14:18:45.966Z,98466.78
2022-11-05T14:21:27.867Z,98470.66
2022-11-05T14:23:59.521Z,98471.78
2022-11-05T14:26:32.083Z,98469.69
2022-11-05T14:28:58.609Z,98460.97
2022-11-05T14:31:54.350Z,98473.06
2022-11-05T14:34:23.801Z,98467.41
2022-11-05T14:37:17.926Z,98460.69
2022-11-05T14:39:45.577Z,98454.75
2022-11-05T14:42:15.195Z,98460.50
2022-11-05T14:44:57.038Z,98460.09
2022-11-05T14:47:26.580Z,98451.75
2022-11-05T14:49:58.543Z,98452.03
2022-11-05T14:52:25.178Z,98436.38
2022-11-05T14:54:54.249Z,98449.94
2022-11-05T14:57:42.590Z,98456.97
2022-11-05T15:00:40.716Z,98464.47
2022-11-05T15:03:30.850Z,98459.66
2022-11-05T15:06:05.665Z,98471.06
2022-11-05T15:08:35.367Z,98468.66
2022-11-05T15:11:21.946Z,98468.66
2022-11-05T15:13:54.579Z,98477.63
2022-11-05T15:16:26.168Z,98473.25
2022-11-05T15:18:54.058Z,98476.53
2022-11-05T15:21:21.122Z,98481.56
2022-11-05T15:23:50.058Z,98474.78
2022-11-05T15:26:41.500Z,98477.38
2022-11-05T15:29:19.816Z,98476.19
2022-11-05T15:31:46.728Z,98479.56
2022-11-05T15:34:16.487Z,98492.88
2022-11-05T15:37:13.502Z,98491.75
2022-11-05T15:39:42.343Z,98497.28
2022-11-05T15:42:18.953Z,98501.25
2022-11-05T15:44:50.525Z,98502.19
2022-11-05T15:47:25.559Z,98503.06
2022-11-05T15:49:58.280Z,98498.91
2022-11-05T15:52:33.662Z,98510.88
2022-11-05T15:55:12.469Z,98514.38
2022-11-05T15:57:50.281Z,98510.44
2022-11-05T16:00:20.675Z,98522.25
2022-11-05T16:03:13.964Z,98527.00
2022-11-05T16:05:45.537Z,98526.91
2022-11-05T16:08:17.080Z,98527.06
2022-11-05T16:10:48.003Z,98525.56
2022-11-05T16:13:37.042Z,98531.03
2022-11-05T16:16:14.240Z,98534.63
2022-11-05T16:18:41.866Z,98536.13
2022-11-05T16:21:14.083Z,98542.78
2022-11-05T16:23:44.741Z,98548.88
2022-11-05T16:27:01.083Z,98551.84
2022-11-05T16:29:29.236Z,98557.66
2022-11-05T16:31:57.178Z,98563.88
2022-11-05T16:34:27.338Z,98559.47
2022-11-05T16:36:56.070Z,98564.00
2022-11-05T16:39:22.684Z,98556.16
2022-11-05T16:41:49.579Z,98558.28
2022-11-05T16:44:16.182Z,98565.59
2022-11-05T16:46:46.694Z,98564.63
2022-11-05T16:49:13.617Z,98565.59
2022-11-05T16:51:40.644Z,98568.91
2022-11-05T16:54:07.417Z,98574.34
2022-11-05T16:56:34.161Z,98572.13
2022-11-05T16:59:01.019Z,98573.31
2022-11-05T17:01:28.004Z,98567.38
2022-11-05T17:03:54.895Z,98581.78
2022-11-05T17:06:21.889Z,98582.16
2022-11-05T17:08:48.668Z,98585.81
2022-11-05T17:11:17.451Z,98585.78
2022-11-05T17:13:44.464Z,98604.22
2022-11-05T17:16:13.047Z,98604.63
2022-11-05T17:18:40.554Z,98603.47
2022-11-05T17:21:08.314Z,98612.22
2022-11-05T17:23:35.459Z,98618.69
2022-11-05T17:26:04.643Z,98626.66
2022-11-05T17:28:31.345Z,98631.16
2022-11-05T17:31:02.088Z,98626.66
2022-11-05T17:33:28.931Z,98641.03
2022-11-05T17:35:56.150Z,98633.59
2022-11-05T17:38:23.724Z,98635.56
2022-11-05T17:40:50.621Z,98647.56
2022-11-05T17:43:17.709Z,98636.22
2022-11-05T17:45:47.153Z,98654.59
2022-11-05T17:48:14.679Z,98653.25
2022-11-05T17:50:46.196Z,98642.16
2022-11-05T17:53:14.219Z,98643.13
2022-11-05T17:55:42.190Z,98644.72
2022-11-05T17:58:08.840Z,98648.78
2022-11-05T18:00:35.860Z,98644.00
2022-11-05T18:03:02.538Z,98660.31
2022-11-05T18:05:30.880Z,98649.53
2022-11-05T18:07:58.021Z,98659.09
2022-11-05T18:10:24.882Z,98650.56
2022-11-05T18:12:51.527Z,98664.66
2022-11-05T18:15:18.353Z,98660.28
2022-11-05T18:17:46.179Z,98655.03
2022-11-05T18:20:18.856Z,98651.47
2022-11-05T18:22:48.438Z,98659.88
2022-11-05T18:25:14.998Z,98662.00
2022-11-05T18:27:41.605Z,98665.22
2022-11-05T18:30:09.879Z,98662.06
2022-11-05T18:32:36.795Z,98671.72
2022-11-05T18:35:03.613Z,98670.41
2022-11-05T18:37:30.217Z,98677.59
2022-11-05T18:39:56.852Z,98677.09
2022-11-05T18:42:23.497Z,98683.59
2022-11-05T18:44:50.041Z,98691.34
2022-11-05T18:47:16.748Z,98690.16
2022-11-05T18:49:43.333Z,98694.16
2022-11-05T18:52:09.879Z,98695.69
2022-11-05T18:54:36.397Z,98697.28
2022-11-05T18:57:03.120Z,98696.94
2022-11-05T18:59:37.639Z,98697.28
2022-11-05T19:02:06.091Z,98698.63
2022-11-05T19:04:32.869Z,98704.44
2022-11-05T19:07:04.388Z,98689.75
2022-11-05T19:09:32.328Z,98714.69
2022-11-05T19:11:58.889Z,98717.72
2022-11-05T19:14:25.515Z,98721.94
2022-11-05T19:16:52.057Z,98724.53
2022-11-05T19:19:18.781Z,98719.56
2022-11-05T19:21:45.545Z,98732.09
2022-11-05T19:24:16.638Z,98725.25
2022-11-05T19:26:43.646Z,98725.31
2022-11-05T19:29:10.287Z,98741.03
2022-11-05T19:31:36.996Z,98744.59
2022-11-05T19:34:05.357Z,98739.66
2022-11-05T19:36:32.861Z,98741.31
2022-11-05T19:39:01.940Z,98741.09
2022-11-05T19:41:28.758Z,98741.09
2022-11-05T19:43:57.783Z,98741.75
2022-11-05T19:46:25.069Z,98737.34
2022-11-05T19:48:52.220Z,98740.34
2022-11-05T19:51:23.848Z,98735.16
2022-11-05T19:53:52.628Z,98747.22
2022-11-05T19:56:24.629Z,98745.13
2022-11-05T19:58:53.003Z,98747.19
2022-11-05T20:01:21.324Z,98757.00
2022-11-05T20:03:48.164Z,98766.16
2022-11-05T20:06:20.173Z,98776.09
2022-11-05T20:09:15.359Z,98780.06
2022-11-05T20:11:36.840Z,98774.25
2022-11-05T20:14:04.865Z,98779.22
2022-11-05T20:16:38.118Z,98785.47
2022-11-05T20:19:06.551Z,98778.44
2022-11-05T20:21:33.724Z,98756.81
2022-11-05T20:24:00.416Z,98773.81
2022-11-05T20:26:27.415Z,98798.34
2022-11-05T20:28:54.245Z,98797.75
2022-11-05T20:31:21.085Z,98794.03
2022-11-05T20:33:47.819Z,98788.63
2022-11-05T20:36:16.628Z,98790.25
2022-11-05T20:38:44.680Z,98794.03
2022-11-05T20:41:13.052Z,98800.06
2022-11-05T20:43:43.049Z,98806.50
2022-11-05T20:46:13.327Z,98801.28
2022-11-05T20:48:40.474Z,98810.44
2022-11-05T20:51:09.335Z,98803.75
2022-11-05T20:53:36.703Z,98806.47
2022-11-05T20:56:07.887Z,98785.72
2022-11-05T20:58:38.535Z,98812.50
2022-11-05T21:01:05.733Z,98812.91
2022-11-05T21:03:32.569Z,98812.28
2022-11-05T21:06:04.021Z,98817.06
2022-11-05T21:08:30.636Z,98807.91
2022-11-05T21:10:57.240Z,98817.03
2022-11-05T21:13:24.992Z,98817.03
2022-11-05T21:15:53.636Z,98820.16
2022-11-05T21:18:21.966Z,98822.44
2022-11-05T21:20:48.612Z,98823.03
2022-11-05T21:23:15.952Z,98822.81
2022-11-05T21:25:43.466Z,98831.94
2022-11-05T21:28:11.821Z,98832.38
2022-11-05T21:30:41.449Z,98834.25
2022-11-05T21:33:08.817Z,98837.50
2022-11-05T21:35:40.039Z,98848.72
2022-11-05T21:38:06.791Z,98860.59
2022-11-05T21:40:33.331Z,98845.31
2022-11-05T21:42:59.886Z,98852.81
2022-11-05T21:45:26.441Z,98845.06
2022-11-05T21:47:53.024Z,98844.41
2022-11-05T21:50:21.929Z,98844.63
2022-11-05T21:53:07.351Z,98830.50
2022-11-05T21:55:52.566Z,98834.63
2022-11-05T21:58:38.056Z,98840.69
2022-11-05T22:01:04.648Z,98839.63
2022-11-05T22:03:31.126Z,98848.25
2022-11-05T22:05:57.627Z,98847.56
2022-11-05T22:08:24.147Z,98846.53
2022-11-05T22:10:50.631Z,98847.75
2022-11-05T22:13:17.135Z,98851.72
2022-11-05T22:15:43.681Z,98837.97
2022-11-05T22:18:10.603Z,98849.22
2022-11-05T22:20:39.353Z,98846.69
2022-11-05T22:23:10.847Z,98844.97
2022-11-05T22:25:37.932Z,98842.94
2022-11-05T22:28:04.657Z,98844.38
2022-11-05T22:30:35.361Z,98851.81
2022-11-05T22:33:01.916Z,98854.28
2022-11-05T22:35:29.037Z,98848.00
2022-11-05T22:37:55.560Z,98842.66
2022-11-05T22:40:23.992Z,98845.72
2022-11-05T22:42:50.853Z,98852.13
2022-11-05T22:45:17.382Z,98849.50
2022-11-05T22:47:45.098Z,98857.91
2022-11-05T22:50:11.724Z,98853.72
2022-11-05T22:52:38.352Z,98855.88
2022-11-05T22:55:06.147Z,98870.34
2022-11-05T22:57:32.683Z,98862.66
2022-11-05T22:59:59.248Z,98875.78
2022-11-05T23:02:25.845Z,98881.25
2022-11-05T23:04:52.538Z,98883.69
2022-11-05T23:07:37.820Z,98883.97
2022-11-05T23:10:23.125Z,98885.53
2022-11-05T23:12:49.615Z,98879.94
2022-11-05T23:15:34.680Z,98877.81
2022-11-05T23:18:19.725Z,98877.19
2022-11-05T23:21:04.809Z,98882.03
2022-11-05T23:23:49.723Z,98873.94
2022-11-05T23:26:34.822Z,98878.28
2022-11-05T23:29:01.346Z,98871.16
2022-11-05T23:31:46.321Z,98879.31
2022-11-05T23:34:12.796Z,98880.50
2022-11-05T23:36:57.453Z,98872.63
2022-11-05T23:39:23.978Z,98880.69
2022-11-05T23:42:09.042Z,98887.59
2022-11-05T23:44:54.096Z,98877.78
2022-11-05T23:47:39.085Z,98883.75
2022-11-05T23:50:05.913Z,98876.09
2022-11-05T23:52:32.533Z,98889.53
2022-11-05T23:54:59.171Z,98882.31
2022-11-05T23:57:25.685Z,98886.13
2022-11-05T23:59:52.325Z,98882.22
